Time;durP1;ratioP1;P1;durP2;ratioP2;P2;SDS_P1;SDS_P2;PMS_P1;PMS_P2;Temp;Humidity;BMP_temperature;BMP_pressure;BME280_temperature;BME280_humidity;BME280_pressure;Samples;Min_cycle;Max_cycle;Signal;HPM_P1;HPM_P2
2023/12/01 00:02:10;;;;;;;86.88;35.20;;;0.50;99.90;;;;;;5053124;28;20025;-74
2023/12/01 00:04:38;;;;;;;85.57;34.25;;;0.50;99.90;;;;;;5053168;28;20021;-74
2023/12/01 00:07:04;;;;;;;81.13;33.63;;;0.50;99.90;;;;;;5052897;28;20064;-73
2023/12/01 00:09:30;;;;;;;85.05;35.58;;;0.50;99.90;;;;;;5053224;28;20123;-74
2023/12/01 00:11:56;;;;;;;80.57;34.10;;;0.50;99.90;;;;;;5053004;28;20394;-74
2023/12/01 00:14:22;;;;;;;78.88;33.10;;;0.40;99.90;;;;;;5053009;28;20033;-74
2023/12/01 00:16:47;;;;;;;78.22;32.92;;;0.40;99.90;;;;;;5052635;28;20033;-74
2023/12/01 00:19:13;;;;;;;85.03;34.20;;;0.40;99.90;;;;;;5052571;28;20112;-74
2023/12/01 00:21:38;;;;;;;93.82;36.33;;;0.40;99.90;;;;;;5052992;28;20151;-74
2023/12/01 00:24:04;;;;;;;101.43;39.55;;;0.30;99.90;;;;;;5052954;28;20035;-74
2023/12/01 00:26:30;;;;;;;91.72;35.78;;;0.30;99.90;;;;;;5052577;28;20057;-73
2023/12/01 00:28:55;;;;;;;91.10;35.00;;;0.20;99.90;;;;;;5052841;28;20094;-74
2023/12/01 00:31:21;;;;;;;84.28;34.20;;;0.30;99.90;;;;;;5052832;28;20067;-73
2023/12/01 00:33:46;;;;;;;84.38;32.40;;;0.30;99.90;;;;;;5052591;28;20402;-74
2023/12/01 00:36:12;;;;;;;79.68;31.13;;;0.20;99.90;;;;;;5053810;28;20048;-74
2023/12/01 00:38:37;;;;;;;78.47;30.92;;;0.30;99.90;;;;;;5056410;28;20037;-74
2023/12/01 00:41:03;;;;;;;81.68;31.17;;;0.30;99.90;;;;;;5056718;28;20375;-74
2023/12/01 00:43:29;;;;;;;81.82;30.17;;;0.20;99.90;;;;;;5056623;28;20040;-73
2023/12/01 00:45:54;;;;;;;85.65;34.05;;;0.30;99.90;;;;;;5056641;28;20032;-73
2023/12/01 00:48:20;;;;;;;106.93;40.63;;;0.30;99.90;;;;;;5056569;28;20028;-74
2023/12/01 00:50:45;;;;;;;104.88;38.25;;;0.10;99.90;;;;;;5056514;28;20078;-74
2023/12/01 00:53:11;;;;;;;93.95;33.45;;;0.10;99.90;;;;;;5056348;28;20089;-74
2023/12/01 00:55:36;;;;;;;99.70;34.55;;;0.00;99.90;;;;;;5056312;28;20159;-74
2023/12/01 00:58:02;;;;;;;110.05;38.00;;;0.10;99.90;;;;;;5056301;28;20119;-74
2023/12/01 01:00:28;;;;;;;99.80;34.95;;;0.10;99.90;;;;;;5056216;28;20037;-74
2023/12/01 01:02:54;;;;;;;99.55;34.15;;;0.10;99.90;;;;;;5056056;28;20025;-74
2023/12/01 01:05:20;;;;;;;92.03;33.38;;;0.10;99.90;;;;;;5056078;28;20063;-74
2023/12/01 01:07:45;;;;;;;90.15;32.65;;;0.00;99.90;;;;;;5056178;28;20529;-74
2023/12/01 01:10:11;;;;;;;96.07;33.97;;;0.00;99.90;;;;;;5056215;28;20037;-74
2023/12/01 01:12:36;;;;;;;102.07;34.38;;;-0.10;99.90;;;;;;5056063;28;20107;-74
2023/12/01 01:15:03;;;;;;;100.53;35.40;;;-0.10;99.90;;;;;;5056019;28;20486;-74
2023/12/01 01:17:31;;;;;;;108.70;35.55;;;-0.10;99.90;;;;;;5055844;28;20037;-74
2023/12/01 01:19:58;;;;;;;99.50;34.80;;;-0.10;99.90;;;;;;5055859;28;20025;-74
2023/12/01 01:22:24;;;;;;;101.97;35.92;;;-0.10;99.90;;;;;;5055708;28;20049;-74
2023/12/01 01:24:50;;;;;;;94.35;35.83;;;-0.10;99.90;;;;;;5055556;28;20111;-74
2023/12/01 01:27:15;;;;;;;109.00;36.67;;;-0.10;99.90;;;;;;5055942;28;20453;-74
2023/12/01 01:29:41;;;;;;;105.28;36.58;;;-0.20;99.90;;;;;;5055939;28;20047;-74
2023/12/01 01:32:06;;;;;;;101.00;33.83;;;-0.20;99.90;;;;;;5055849;28;20086;-73
2023/12/01 01:34:32;;;;;;;110.95;35.85;;;-0.20;99.90;;;;;;5055943;28;20033;-74
2023/12/01 01:36:57;;;;;;;113.25;36.80;;;-0.20;99.90;;;;;;5055494;28;20041;-74
2023/12/01 01:39:23;;;;;;;96.70;34.30;;;-0.30;99.90;;;;;;5055726;28;20029;-74
2023/12/01 01:41:48;;;;;;;107.10;35.70;;;-0.30;99.90;;;;;;5055631;28;20364;-74
2023/12/01 01:44:14;;;;;;;114.00;35.97;;;-0.30;99.90;;;;;;5055674;28;20029;-74
2023/12/01 01:46:39;;;;;;;113.70;37.72;;;-0.30;99.90;;;;;;5054810;28;20386;-74
2023/12/01 01:49:05;;;;;;;107.32;34.60;;;-0.40;99.90;;;;;;5055423;28;20029;-74
2023/12/01 01:51:34;;;;;;;122.82;37.55;;;-0.40;99.90;;;;;;5055508;28;20033;-74
2023/12/01 01:53:59;;;;;;;107.18;36.90;;;-0.40;99.90;;;;;;5055385;28;20578;-74
2023/12/01 01:56:26;;;;;;;112.13;39.13;;;-0.30;99.90;;;;;;5055378;28;20064;-74
2023/12/01 01:58:51;;;;;;;117.07;35.20;;;-0.30;99.90;;;;;;5054906;28;20037;-74
2023/12/01 02:01:17;;;;;;;118.88;37.88;;;-0.30;99.90;;;;;;5054798;28;20036;-74
2023/12/01 02:03:43;;;;;;;118.57;38.08;;;-0.30;99.90;;;;;;5055295;28;20430;-74
2023/12/01 02:06:08;;;;;;;115.97;35.88;;;-0.30;99.90;;;;;;5055115;28;20064;-74
2023/12/01 02:08:34;;;;;;;112.93;37.40;;;-0.30;99.90;;;;;;5055249;28;20071;-74
2023/12/01 02:11:00;;;;;;;106.35;36.13;;;-0.20;99.90;;;;;;5055009;28;20117;-74
2023/12/01 02:13:28;;;;;;;106.05;36.78;;;-0.30;99.90;;;;;;5054974;28;20033;-74
2023/12/01 02:15:53;;;;;;;101.40;35.88;;;-0.20;99.90;;;;;;5054383;28;20025;-74
2023/12/01 02:18:22;;;;;;;112.32;36.55;;;-0.30;99.90;;;;;;5054594;28;20033;-74
2023/12/01 02:20:48;;;;;;;113.90;37.67;;;-0.30;99.90;;;;;;5054878;28;20029;-74
2023/12/01 02:23:14;;;;;;;119.32;38.22;;;-0.30;99.90;;;;;;5054832;28;20029;-74
2023/12/01 02:25:40;;;;;;;115.32;40.42;;;-0.30;99.90;;;;;;5054744;28;20545;-74
2023/12/01 02:28:05;;;;;;;120.05;40.05;;;-0.30;99.90;;;;;;5054878;28;20032;-74
2023/12/01 02:30:31;;;;;;;129.50;41.38;;;-0.30;99.90;;;;;;5054622;28;20481;-74
2023/12/01 02:32:56;;;;;;;129.18;41.25;;;-0.30;99.90;;;;;;5054611;28;20505;-74
2023/12/01 02:35:29;;;;;;;119.07;39.13;;;-0.30;99.90;;;;;;5054709;28;20091;-74
2023/12/01 02:37:56;;;;;;;136.88;42.55;;;-0.30;99.90;;;;;;5054025;28;20049;-74
2023/12/01 02:40:23;;;;;;;133.77;40.20;;;-0.30;99.90;;;;;;5054174;28;20056;-74
2023/12/01 02:42:49;;;;;;;125.20;39.40;;;-0.30;99.90;;;;;;5054653;28;20075;-74
2023/12/01 02:45:16;;;;;;;127.43;40.25;;;-0.30;99.90;;;;;;5054582;28;20025;-74
2023/12/01 02:47:43;;;;;;;125.00;39.17;;;-0.30;99.90;;;;;;5054591;28;20040;-74
2023/12/01 02:50:09;;;;;;;126.47;39.72;;;-0.30;99.90;;;;;;5054411;28;20025;-74
2023/12/01 02:52:36;;;;;;;125.70;40.83;;;-0.30;99.90;;;;;;5054033;28;20017;-74
2023/12/01 02:55:02;;;;;;;133.85;42.83;;;-0.20;99.90;;;;;;5054479;28;20390;-74
2023/12/01 02:57:28;;;;;;;140.13;45.22;;;-0.10;99.90;;;;;;5054174;28;20033;-74
2023/12/01 02:59:53;;;;;;;138.27;44.72;;;-0.10;99.90;;;;;;5053146;28;20478;-74
2023/12/01 03:02:19;;;;;;;143.18;46.45;;;-0.10;99.90;;;;;;5054378;28;20120;-74
2023/12/01 03:04:44;;;;;;;123.93;38.60;;;-0.10;99.90;;;;;;5054106;28;20410;-74
2023/12/01 03:07:10;;;;;;;118.82;38.58;;;-0.10;99.90;;;;;;5054204;28;20032;-74
2023/12/01 03:09:36;;;;;;;128.55;39.78;;;-0.10;99.90;;;;;;5054128;28;20032;-74
2023/12/01 03:12:03;;;;;;;117.93;40.55;;;-0.10;99.90;;;;;;5053465;28;20115;-74
2023/12/01 03:14:28;;;;;;;116.68;39.45;;;-0.10;99.90;;;;;;5053635;28;20398;-74
2023/12/01 03:16:56;;;;;;;111.65;36.97;;;-0.20;99.90;;;;;;5053950;28;20021;-74
2023/12/01 03:19:22;;;;;;;106.88;35.85;;;-0.20;99.90;;;;;;5053505;28;20514;-74
2023/12/01 03:21:47;;;;;;;109.55;37.97;;;-0.20;99.90;;;;;;5053603;28;20025;-74
2023/12/01 03:24:13;;;;;;;102.78;35.88;;;-0.30;99.90;;;;;;5053901;28;20043;-74
2023/12/01 03:26:39;;;;;;;111.30;37.75;;;-0.20;99.90;;;;;;5053611;28;20033;-74
2023/12/01 03:29:04;;;;;;;112.15;36.03;;;-0.20;99.90;;;;;;5053803;28;20025;-74
2023/12/01 03:31:30;;;;;;;117.75;36.92;;;-0.20;99.90;;;;;;5053603;28;20070;-74
2023/12/01 03:33:55;;;;;;;115.45;36.78;;;-0.30;99.90;;;;;;5053444;28;20029;-74
2023/12/01 03:36:22;;;;;;;104.90;35.38;;;-0.30;99.90;;;;;;5053577;28;20502;-74
2023/12/01 03:38:48;;;;;;;104.75;36.20;;;-0.30;99.90;;;;;;5053597;28;20034;-74
2023/12/01 03:41:14;;;;;;;114.45;36.40;;;-0.40;99.90;;;;;;5053612;28;20471;-74
2023/12/01 03:43:39;;;;;;;119.43;37.55;;;-0.30;99.90;;;;;;5053768;28;20029;-74
2023/12/01 03:46:05;;;;;;;117.07;35.13;;;-0.30;99.90;;;;;;5053711;28;20070;-74
2023/12/01 03:48:33;;;;;;;114.10;36.65;;;-0.20;99.90;;;;;;5052973;28;20122;-74
2023/12/01 03:50:59;;;;;;;109.57;34.85;;;-0.10;99.90;;;;;;5053059;28;20029;-74
2023/12/01 03:53:25;;;;;;;110.00;36.30;;;-0.10;99.90;;;;;;5053532;28;20033;-74
2023/12/01 03:55:50;;;;;;;105.40;34.08;;;-0.10;99.90;;;;;;5053309;28;20036;-74
2023/12/01 03:58:17;;;;;;;104.55;34.63;;;0.00;99.90;;;;;;5053233;28;20487;-74
2023/12/01 04:00:42;;;;;;;109.43;36.72;;;-0.10;99.90;;;;;;5052882;28;20115;-74
2023/12/01 04:03:08;;;;;;;105.63;35.92;;;-0.10;99.90;;;;;;5053363;28;20065;-74
2023/12/01 04:05:33;;;;;;;98.00;34.00;;;-0.10;99.90;;;;;;5052959;28;20021;-74
2023/12/01 04:07:59;;;;;;;108.82;36.05;;;0.00;99.90;;;;;;5052838;28;20025;-74
2023/12/01 04:10:25;;;;;;;109.85;36.17;;;0.00;99.90;;;;;;5054475;28;20029;-73
2023/12/01 04:12:51;;;;;;;115.40;37.50;;;0.00;99.90;;;;;;5056858;28;20108;-74
2023/12/01 04:15:19;;;;;;;111.03;37.55;;;0.00;99.90;;;;;;5056780;28;20140;-74
2023/12/01 04:17:48;;;;;;;100.28;34.85;;;0.00;99.90;;;;;;5057156;28;20116;-74
2023/12/01 04:20:25;;;;;;;106.15;33.47;;;0.00;99.90;;;;;;5056796;28;20025;-74
2023/12/01 04:22:54;;;;;;;106.50;36.47;;;0.00;99.90;;;;;;5057182;28;20089;-74
2023/12/01 04:25:19;;;;;;;103.43;35.10;;;0.10;99.90;;;;;;5056931;28;20048;-74
2023/12/01 04:27:46;;;;;;;102.50;34.33;;;0.10;99.90;;;;;;5057060;28;20072;-74
2023/12/01 04:30:15;;;;;;;101.72;34.10;;;0.10;99.90;;;;;;5057020;28;20479;-74
2023/12/01 04:32:43;;;;;;;104.32;36.50;;;0.20;99.90;;;;;;5056831;28;20491;-74
2023/12/01 04:35:10;;;;;;;113.53;37.00;;;0.10;99.90;;;;;;5057193;28;20029;-74
2023/12/01 04:37:36;;;;;;;123.63;37.22;;;0.10;99.90;;;;;;5057122;28;20402;-75
2023/12/01 04:40:03;;;;;;;123.07;40.33;;;-0.10;99.90;;;;;;5056918;28;20029;-75
2023/12/01 04:42:29;;;;;;;125.63;38.30;;;-0.20;99.90;;;;;;5057182;28;20429;-75
2023/12/01 04:44:54;;;;;;;133.15;38.85;;;-0.30;99.90;;;;;;5056481;28;20018;-75
2023/12/01 04:47:20;;;;;;;134.95;41.17;;;-0.30;99.90;;;;;;5056429;28;20024;-75
2023/12/01 04:49:46;;;;;;;135.85;39.75;;;-0.30;99.90;;;;;;5056823;28;20033;-75
2023/12/01 04:52:11;;;;;;;142.60;40.65;;;-0.30;99.90;;;;;;5056614;28;20024;-75
2023/12/01 04:54:37;;;;;;;139.88;40.15;;;-0.40;99.90;;;;;;5056211;28;20029;-75
2023/12/01 04:57:03;;;;;;;154.18;41.58;;;-0.40;99.90;;;;;;5056712;28;20046;-74
2023/12/01 04:59:28;;;;;;;131.07;40.00;;;-0.40;99.90;;;;;;5055991;28;20025;-75
2023/12/01 05:01:54;;;;;;;134.70;39.50;;;-0.40;99.90;;;;;;5056312;28;20021;-74
2023/12/01 05:04:19;;;;;;;141.75;42.17;;;-0.40;99.90;;;;;;5056339;28;20036;-74
2023/12/01 05:06:45;;;;;;;145.57;41.05;;;-0.40;99.90;;;;;;5056404;28;20068;-74
2023/12/01 05:09:16;;;;;;;140.15;38.65;;;-0.40;99.90;;;;;;5056075;28;20032;-74
2023/12/01 05:11:44;;;;;;;143.65;42.15;;;-0.40;99.90;;;;;;5056113;28;20033;-74
2023/12/01 05:14:10;;;;;;;145.18;39.13;;;-0.30;99.90;;;;;;5056423;28;20025;-74
2023/12/01 05:16:36;;;;;;;129.27;38.10;;;-0.30;99.90;;;;;;5056147;28;20429;-75
2023/12/01 05:19:01;;;;;;;128.27;39.53;;;-0.30;99.90;;;;;;5055510;28;20483;-75
2023/12/01 05:21:27;;;;;;;141.93;41.22;;;-0.30;99.90;;;;;;5055200;28;20057;-75
2023/12/01 05:23:52;;;;;;;133.57;40.95;;;-0.30;99.90;;;;;;5055885;28;20025;-75
2023/12/01 05:26:18;;;;;;;132.80;39.70;;;-0.30;99.90;;;;;;5055942;28;20025;-74
2023/12/01 05:28:44;;;;;;;130.05;38.17;;;-0.30;99.90;;;;;;5055239;28;20033;-74
2023/12/01 05:31:10;;;;;;;131.18;38.38;;;-0.20;99.90;;;;;;5055674;28;20029;-75
2023/12/01 05:33:38;;;;;;;129.02;39.22;;;-0.30;99.90;;;;;;5055558;28;20048;-74
2023/12/01 05:36:08;;;;;;;125.82;38.60;;;-0.20;99.90;;;;;;5055328;28;20479;-74
2023/12/01 05:38:33;;;;;;;145.13;40.60;;;-0.20;99.90;;;;;;5055289;28;20395;-75
2023/12/01 05:40:59;;;;;;;143.35;40.78;;;-0.20;99.90;;;;;;5055184;28;20025;-74
2023/12/01 05:43:25;;;;;;;133.68;39.28;;;-0.20;99.90;;;;;;5055330;28;20025;-74
2023/12/01 05:45:50;;;;;;;133.57;40.83;;;-0.20;99.90;;;;;;5055484;28;20029;-74
2023/12/01 05:48:16;;;;;;;137.75;41.55;;;-0.20;99.90;;;;;;5055363;28;20414;-74
2023/12/01 05:50:42;;;;;;;129.82;39.20;;;-0.20;99.90;;;;;;5055393;28;20029;-74
2023/12/01 05:53:08;;;;;;;131.43;40.47;;;-0.10;99.90;;;;;;5055304;28;20033;-74
2023/12/01 05:55:35;;;;;;;125.90;38.63;;;-0.10;99.90;;;;;;5055261;28;20501;-74
2023/12/01 05:58:04;;;;;;;121.90;38.67;;;0.00;99.90;;;;;;5055019;28;20025;-74
2023/12/01 06:00:31;;;;;;;119.35;37.67;;;0.00;99.90;;;;;;5054701;28;20048;-74
2023/12/01 06:02:59;;;;;;;121.15;39.10;;;0.00;99.90;;;;;;5055142;28;20078;-74
2023/12/01 06:05:25;;;;;;;120.35;37.58;;;0.00;99.90;;;;;;5054623;28;20052;-74
2023/12/01 06:07:54;;;;;;;122.60;38.75;;;0.00;99.90;;;;;;5054986;28;20502;-74
2023/12/01 06:10:21;;;;;;;123.85;38.33;;;0.00;99.90;;;;;;5055103;28;20501;-74
2023/12/01 06:12:47;;;;;;;125.22;39.72;;;0.00;99.90;;;;;;5054952;28;20098;-74
2023/12/01 06:15:15;;;;;;;121.10;37.38;;;0.00;99.90;;;;;;5055546;28;20090;-75
2023/12/01 06:17:42;;;;;;;121.20;37.75;;;0.00;99.90;;;;;;5055898;28;20490;-74
2023/12/01 06:20:17;;;;;;;131.23;38.45;;;0.10;99.90;;;;;;5056605;28;20032;-74
2023/12/01 06:22:46;;;;;;;111.15;37.28;;;0.10;99.90;;;;;;5056026;28;20116;-74
2023/12/01 06:25:11;;;;;;;119.40;39.13;;;0.10;99.90;;;;;;5055862;28;20497;-74
2023/12/01 06:27:40;;;;;;;114.78;37.80;;;0.10;99.90;;;;;;5056107;28;20059;-74
2023/12/01 06:30:11;;;;;;;111.50;37.67;;;0.10;99.90;;;;;;5054984;28;20029;-74
2023/12/01 06:32:39;;;;;;;91.70;31.83;;;0.10;99.90;;;;;;5055841;28;20040;-75
2023/12/01 06:35:07;;;;;;;91.03;31.98;;;0.10;99.90;;;;;;5054832;28;20033;-76
2023/12/01 06:37:33;;;;;;;79.25;29.15;;;0.10;99.90;;;;;;5054383;28;20410;-74
2023/12/01 06:39:58;;;;;;;85.30;32.35;;;0.00;99.90;;;;;;5053953;28;20025;-74
2023/12/01 06:42:24;;;;;;;82.28;28.95;;;0.00;99.90;;;;;;5054428;28;20036;-73
2023/12/01 06:44:49;;;;;;;77.70;28.40;;;0.00;99.90;;;;;;5053956;28;20078;-74
2023/12/01 06:47:15;;;;;;;77.07;28.83;;;0.00;99.90;;;;;;5054213;28;20363;-74
2023/12/01 06:49:40;;;;;;;82.82;31.40;;;0.00;99.90;;;;;;5054313;28;20025;-74
2023/12/01 06:52:08;;;;;;;77.65;30.00;;;0.00;99.90;;;;;;5053894;28;20021;-74
2023/12/01 06:54:33;;;;;;;72.93;26.80;;;0.00;99.90;;;;;;5054130;28;20056;-74
2023/12/01 06:56:59;;;;;;;77.93;29.70;;;-0.10;99.90;;;;;;5054063;28;20083;-74
2023/12/01 06:59:24;;;;;;;75.53;29.77;;;-0.10;99.90;;;;;;5053853;28;20033;-74
2023/12/01 07:01:50;;;;;;;86.10;31.90;;;0.00;99.90;;;;;;5054150;28;20083;-74
2023/12/01 07:04:16;;;;;;;73.80;27.23;;;-0.10;99.90;;;;;;5054090;28;20111;-74
2023/12/01 07:06:46;;;;;;;72.18;28.77;;;-0.10;99.90;;;;;;5053811;28;20028;-74
2023/12/01 07:09:17;;;;;;;76.18;29.67;;;-0.20;99.90;;;;;;5053891;28;20021;-74
2023/12/01 07:11:43;;;;;;;77.97;29.73;;;-0.20;99.90;;;;;;5053938;28;20048;-73
2023/12/01 07:14:11;;;;;;;74.28;28.50;;;-0.20;99.90;;;;;;5053623;28;20021;-74
2023/12/01 07:16:36;;;;;;;70.97;25.77;;;-0.20;99.90;;;;;;5053884;28;20124;-74
2023/12/01 07:19:03;;;;;;;71.95;26.90;;;-0.20;99.90;;;;;;5053540;28;20116;-74
2023/12/01 07:21:30;;;;;;;72.82;28.40;;;-0.20;99.90;;;;;;5053666;28;20036;-73
2023/12/01 07:23:55;;;;;;;79.70;28.63;;;-0.20;99.90;;;;;;5053484;28;20498;-74
2023/12/01 07:26:27;;;;;;;68.65;27.25;;;-0.20;99.90;;;;;;5053581;28;20021;-74
2023/12/01 07:28:52;;;;;;;65.72;26.70;;;-0.20;99.90;;;;;;5053361;28;20031;-73
2023/12/01 07:31:18;;;;;;;65.65;26.77;;;-0.20;99.90;;;;;;5058658;28;20104;-74
2023/12/01 07:33:43;;;;;;;74.80;29.20;;;-0.20;99.90;;;;;;5073439;28;20557;-73
2023/12/01 07:36:09;;;;;;;70.22;27.88;;;-0.20;99.90;;;;;;5073338;28;20119;-74
2023/12/01 07:38:35;;;;;;;73.80;30.13;;;-0.20;99.90;;;;;;5073123;28;20054;-73
2023/12/01 07:41:01;;;;;;;72.20;29.58;;;-0.20;99.90;;;;;;5073343;28;20020;-73
2023/12/01 07:43:27;;;;;;;72.72;29.05;;;-0.30;99.90;;;;;;5073011;28;20482;-73
2023/12/01 07:45:52;;;;;;;76.18;29.40;;;-0.30;99.90;;;;;;5072947;28;20115;-74
2023/12/01 07:48:18;;;;;;;68.72;29.77;;;-0.20;99.90;;;;;;5073016;28;20047;-74
2023/12/01 07:50:45;;;;;;;72.22;29.40;;;-0.20;99.90;;;;;;5073365;28;20082;-73
2023/12/01 07:53:10;;;;;;;76.93;28.95;;;-0.20;99.90;;;;;;5073744;28;20051;-74
2023/12/01 07:55:36;;;;;;;81.47;30.45;;;-0.30;99.90;;;;;;5073411;28;20477;-74
2023/12/01 07:58:02;;;;;;;76.55;28.35;;;-0.30;99.90;;;;;;5073209;28;20092;-74
2023/12/01 08:00:28;;;;;;;77.57;31.10;;;-0.30;99.90;;;;;;5073285;28;20508;-74
2023/12/01 08:02:56;;;;;;;82.97;28.27;;;-0.30;99.90;;;;;;5073376;28;20060;-74
2023/12/01 08:05:22;;;;;;;72.20;27.33;;;-0.30;99.90;;;;;;5073456;28;20024;-74
2023/12/01 08:07:51;;;;;;;83.20;29.83;;;-0.30;99.90;;;;;;5073491;28;20115;-74
2023/12/01 08:10:18;;;;;;;79.13;29.33;;;-0.30;99.90;;;;;;5073270;28;20393;-74
2023/12/01 08:12:46;;;;;;;73.50;28.02;;;-0.40;99.90;;;;;;5073069;28;20038;-74
2023/12/01 08:15:12;;;;;;;79.30;29.13;;;-0.40;99.90;;;;;;5073076;28;20075;-74
2023/12/01 08:17:38;;;;;;;82.97;29.20;;;-0.30;99.90;;;;;;5073418;28;20024;-74
2023/12/01 08:20:06;;;;;;;88.00;28.73;;;-0.40;99.90;;;;;;5072726;28;20416;-74
2023/12/01 08:22:32;;;;;;;71.70;26.70;;;-0.40;99.90;;;;;;5073180;28;20387;-74
2023/12/01 08:24:58;;;;;;;78.10;28.27;;;-0.40;99.90;;;;;;5073105;28;20378;-74
2023/12/01 08:27:23;;;;;;;76.75;27.45;;;-0.40;99.90;;;;;;5072593;28;20111;-74
2023/12/01 08:29:51;;;;;;;82.05;28.30;;;-0.40;99.90;;;;;;5072582;28;20028;-74
2023/12/01 08:32:16;;;;;;;73.25;27.40;;;-0.40;99.90;;;;;;5072992;28;20028;-74
2023/12/01 08:34:42;;;;;;;73.90;27.80;;;-0.40;99.90;;;;;;5073271;28;20025;-75
2023/12/01 08:37:08;;;;;;;72.88;27.15;;;-0.40;99.90;;;;;;5073008;28;20490;-74
2023/12/01 08:39:33;;;;;;;75.70;27.00;;;-0.40;99.90;;;;;;5072748;28;20546;-74
2023/12/01 08:41:59;;;;;;;79.30;27.88;;;-0.40;99.90;;;;;;5072685;28;20024;-74
2023/12/01 08:44:24;;;;;;;71.43;27.67;;;-0.50;99.90;;;;;;5073056;28;20028;-74
2023/12/01 08:46:50;;;;;;;80.18;27.73;;;-0.50;99.90;;;;;;5073160;28;20386;-74
2023/12/01 08:49:15;;;;;;;65.40;24.13;;;-0.50;99.90;;;;;;5072948;28;20172;-74
2023/12/01 08:51:41;;;;;;;69.40;24.70;;;-0.50;99.90;;;;;;5072897;28;20030;-74
2023/12/01 08:54:07;;;;;;;70.10;26.13;;;-0.60;99.90;;;;;;5073022;28;20028;-74
2023/12/01 08:56:34;;;;;;;69.95;25.50;;;-0.50;99.90;;;;;;5073203;28;20124;-74
2023/12/01 08:59:00;;;;;;;62.65;24.73;;;-0.50;99.90;;;;;;5076422;28;20029;-74
2023/12/01 09:01:26;;;;;;;64.95;24.50;;;-0.50;99.90;;;;;;5077113;28;20432;-75
2023/12/01 09:03:51;;;;;;;61.63;22.75;;;-0.50;99.90;;;;;;5076430;28;20478;-74
2023/12/01 09:06:17;;;;;;;60.58;24.65;;;-0.60;99.90;;;;;;5076369;28;20029;-74
2023/12/01 09:08:43;;;;;;;65.38;24.15;;;-0.60;99.90;;;;;;5076653;28;20032;-74
2023/12/01 09:11:08;;;;;;;64.15;23.73;;;-0.60;99.90;;;;;;5076276;28;20025;-74
2023/12/01 09:13:34;;;;;;;63.22;24.83;;;-0.70;99.90;;;;;;5076126;28;20024;-74
2023/12/01 09:16:00;;;;;;;56.85;22.85;;;-0.70;99.90;;;;;;5076377;28;20024;-74
2023/12/01 09:18:27;;;;;;;61.05;22.63;;;-0.70;99.90;;;;;;5075969;28;20062;-74
2023/12/01 09:20:52;;;;;;;63.90;24.85;;;-0.70;99.90;;;;;;5075880;28;20036;-74
2023/12/01 09:23:18;;;;;;;61.47;22.90;;;-0.70;99.90;;;;;;5075751;28;20024;-75
2023/12/01 09:25:43;;;;;;;57.85;22.48;;;-0.70;99.90;;;;;;5079375;28;20028;-74
2023/12/01 09:28:09;;;;;;;60.88;24.45;;;-0.60;99.90;;;;;;5076142;28;20401;-74
2023/12/01 09:30:34;;;;;;;52.50;21.00;;;-0.60;99.90;;;;;;5075740;28;20115;-75
2023/12/01 09:33:00;;;;;;;59.85;22.90;;;-0.60;99.90;;;;;;5075498;28;20032;-74
2023/12/01 09:35:26;;;;;;;54.95;21.73;;;-0.60;99.90;;;;;;5075923;28;20436;-75
2023/12/01 09:37:52;;;;;;;62.78;23.67;;;-0.70;99.90;;;;;;5075595;28;20399;-74
2023/12/01 09:40:18;;;;;;;54.28;20.75;;;-0.70;99.90;;;;;;5075833;28;20028;-74
2023/12/01 09:42:46;;;;;;;56.53;23.77;;;-0.60;99.90;;;;;;5075860;28;20112;-74
2023/12/01 09:45:20;;;;;;;58.50;22.83;;;-0.60;99.90;;;;;;5075592;28;20134;-74
2023/12/01 09:47:51;;;;;;;47.75;19.23;;;-0.70;99.90;;;;;;5075646;28;20028;-75
2023/12/01 09:50:18;;;;;;;63.78;22.77;;;-0.70;99.90;;;;;;5077281;28;20127;-74
2023/12/01 09:52:43;;;;;;;59.28;23.10;;;-0.70;99.90;;;;;;5077341;28;20037;-75
2023/12/01 09:55:09;;;;;;;50.03;21.13;;;-0.60;99.90;;;;;;5077216;28;20115;-74
2023/12/01 09:57:36;;;;;;;46.67;18.35;;;-0.60;99.90;;;;;;5077333;28;20440;-74
2023/12/01 10:00:03;;;;;;;44.67;17.65;;;-0.60;99.90;;;;;;5076585;28;20082;-75
2023/12/01 10:02:29;;;;;;;54.70;20.15;;;-0.60;99.90;;;;;;5076765;28;20028;-75
2023/12/01 10:05:02;;;;;;;51.33;20.13;;;-0.70;99.90;;;;;;5076540;28;20502;-75
2023/12/01 10:07:27;;;;;;;50.60;20.83;;;-0.70;99.90;;;;;;5076071;28;20539;-74
2023/12/01 10:09:53;;;;;;;56.95;20.48;;;-0.70;99.90;;;;;;5075574;28;20024;-74
2023/12/01 10:12:18;;;;;;;56.03;21.73;;;-0.60;99.90;;;;;;5075235;28;20024;-74
2023/12/01 10:14:45;;;;;;;53.85;20.13;;;-0.70;99.90;;;;;;5075463;28;20382;-74
2023/12/01 10:17:12;;;;;;;48.35;20.15;;;-0.60;99.90;;;;;;5075638;28;20474;-75
2023/12/01 10:19:47;;;;;;;56.97;21.45;;;-0.70;99.90;;;;;;5075544;28;20032;-74
2023/12/01 10:22:17;;;;;;;51.00;20.52;;;-0.70;99.90;;;;;;5075384;28;20105;-75
2023/12/01 10:25:03;;;;;;;54.72;21.30;;;-0.80;99.90;;;;;;5075287;28;20028;-74
2023/12/01 10:27:29;;;;;;;52.22;20.38;;;-0.90;99.90;;;;;;5074970;28;20028;-74
2023/12/01 10:30:12;;;;;;;52.95;21.88;;;-0.80;99.90;;;;;;5075231;28;20025;-74
2023/12/01 10:32:37;;;;;;;50.92;20.20;;;-0.80;99.90;;;;;;5074497;28;20052;-75
2023/12/01 10:35:05;;;;;;;50.00;20.73;;;-0.80;99.90;;;;;;5074900;28;20028;-74
2023/12/01 10:37:31;;;;;;;55.90;22.25;;;-0.80;99.90;;;;;;5074633;28;20041;-75
2023/12/01 10:39:57;;;;;;;55.55;22.50;;;-0.70;99.90;;;;;;5074894;28;20029;-74
2023/12/01 10:42:24;;;;;;;56.92;21.60;;;-0.70;99.90;;;;;;5074655;28;20487;-74
2023/12/01 10:44:50;;;;;;;57.70;24.88;;;-0.70;99.90;;;;;;5074090;28;20020;-74
2023/12/01 10:47:16;;;;;;;57.97;24.05;;;-0.70;99.90;;;;;;5073909;28;20025;-74
2023/12/01 10:49:44;;;;;;;60.22;23.55;;;-0.60;99.90;;;;;;5074618;28;20036;-75
2023/12/01 10:52:12;;;;;;;53.83;22.38;;;-0.60;99.90;;;;;;5075019;28;20542;-75
2023/12/01 10:54:42;;;;;;;56.08;21.70;;;-0.60;99.90;;;;;;5074636;28;20028;-74
2023/12/01 10:57:31;;;;;;;53.55;20.98;;;-0.70;99.90;;;;;;5074527;28;20035;-74
2023/12/01 11:00:00;;;;;;;53.58;20.23;;;-0.60;99.90;;;;;;5074078;28;20486;-74
2023/12/01 11:02:29;;;;;;;54.63;22.08;;;-0.70;99.90;;;;;;5073791;28;20025;-76
2023/12/01 11:04:56;;;;;;;53.60;21.25;;;-0.70;99.90;;;;;;5074137;28;20074;-75
2023/12/01 11:07:50;;;;;;;57.17;22.27;;;-0.70;99.90;;;;;;5073971;28;20021;-75
2023/12/01 11:13:27;;;;;;;50.38;21.05;;;-0.60;99.90;;;;;;5071017;28;20379;-76
2023/12/01 11:15:55;;;;;;;50.80;20.63;;;-0.50;99.90;;;;;;5070958;28;20380;-76
2023/12/01 11:18:21;;;;;;;53.80;21.95;;;-0.50;99.90;;;;;;5070608;28;20029;-76
2023/12/01 11:20:48;;;;;;;64.10;24.70;;;-0.50;99.90;;;;;;5070735;28;20483;-76
2023/12/01 11:23:23;;;;;;;57.60;23.70;;;-0.50;99.90;;;;;;5070670;28;20387;-76
2023/12/01 11:25:55;;;;;;;56.80;24.63;;;-0.50;99.90;;;;;;5070785;28;20365;-76
2023/12/01 11:29:00;;;;;;;63.28;24.20;;;-0.50;99.90;;;;;;5070569;28;20453;-76
2023/12/01 11:31:21;;;;;;;60.83;23.52;;;-0.40;99.90;;;;;;5070924;28;20052;-76
2023/12/01 11:33:50;;;;;;;53.65;21.67;;;-0.40;99.90;;;;;;5071332;28;20470;-76
2023/12/01 11:36:25;;;;;;;61.63;24.25;;;-0.40;99.90;;;;;;5070920;28;20029;-76
2023/12/01 11:44:27;;;;;;;51.00;20.90;;;-0.40;99.90;;;;;;5110745;27;20302;-76
2023/12/01 11:46:55;;;;;;;55.78;23.20;;;-0.40;99.90;;;;;;5110894;28;20054;-76
2023/12/01 11:49:25;;;;;;;52.80;21.63;;;-0.40;99.90;;;;;;5111412;28;20020;-75
2023/12/01 11:51:51;;;;;;;53.50;22.77;;;-0.40;99.90;;;;;;5111299;28;20028;-75
2023/12/01 11:54:17;;;;;;;53.95;22.95;;;-0.40;99.90;;;;;;5111415;28;20077;-75
2023/12/01 11:56:48;;;;;;;53.53;22.20;;;-0.30;99.90;;;;;;5111466;28;20031;-76
2023/12/01 11:59:13;;;;;;;52.83;22.10;;;-0.40;99.90;;;;;;5111250;28;20492;-76
2023/12/01 12:01:39;;;;;;;51.70;21.85;;;-0.40;99.90;;;;;;5111134;28;20024;-75
2023/12/01 12:04:09;;;;;;;57.22;22.45;;;-0.40;99.90;;;;;;5110280;28;20033;-75
2023/12/01 12:06:35;;;;;;;56.42;23.17;;;-0.30;99.90;;;;;;5110840;28;20171;-75
2023/12/01 12:09:06;;;;;;;53.08;22.17;;;-0.30;99.90;;;;;;5110901;28;20031;-75
2023/12/01 12:11:34;;;;;;;47.22;19.63;;;-0.30;99.90;;;;;;5111333;28;20028;-76
2023/12/01 12:14:01;;;;;;;50.40;21.25;;;-0.20;99.90;;;;;;5111238;28;20019;-76
2023/12/01 12:16:27;;;;;;;50.17;21.17;;;-0.20;99.90;;;;;;5111788;28;20024;-76
2023/12/01 12:18:56;;;;;;;44.78;19.15;;;-0.20;99.90;;;;;;5110862;28;20062;-76
2023/12/01 12:21:23;;;;;;;46.22;20.40;;;-0.10;99.90;;;;;;5111254;28;20032;-76
2023/12/01 12:23:49;;;;;;;51.08;21.48;;;-0.10;99.90;;;;;;5110702;28;20031;-76
2023/12/01 12:26:17;;;;;;;47.60;21.50;;;-0.10;99.90;;;;;;5111519;28;20028;-76
2023/12/01 12:28:49;;;;;;;43.17;20.20;;;-0.10;99.90;;;;;;5112327;28;20107;-76
2023/12/01 12:31:15;;;;;;;47.00;19.40;;;-0.30;99.90;;;;;;5110772;28;20469;-76
2023/12/01 12:33:41;;;;;;;48.28;20.30;;;-0.20;99.90;;;;;;5110288;28;20028;-76